createdAt,value
2023-04-09T00:00:26.358Z,10.74
2023-04-09T00:02:55.614Z,10.78
2023-04-09T00:05:24.842Z,10.75
2023-04-09T00:07:53.909Z,10.71
2023-04-09T00:10:23.332Z,10.50
2023-04-09T00:12:54.560Z,10.62
2023-04-09T00:15:30.759Z,10.53
2023-04-09T00:18:01.223Z,10.79
2023-04-09T00:20:34.021Z,10.71
2023-04-09T00:23:05.768Z,10.47
2023-04-09T00:25:37.280Z,10.64
2023-04-09T00:28:06.725Z,10.69
2023-04-09T00:30:38.763Z,10.41
2023-04-09T00:33:12.125Z,10.55
2023-04-09T00:35:43.529Z,10.59
2023-04-09T00:38:15.496Z,10.59
2023-04-09T00:40:44.759Z,10.60
2023-04-09T00:43:13.789Z,10.60
2023-04-09T00:45:43.515Z,10.33
2023-04-09T00:48:16.228Z,10.62
2023-04-09T00:50:45.650Z,10.58
2023-04-09T00:53:17.297Z,10.74
2023-04-09T00:55:49.366Z,10.42
2023-04-09T00:58:21.508Z,10.51
2023-04-09T01:00:50.604Z,10.49
2023-04-09T01:03:19.974Z,10.59
2023-04-09T01:05:58.085Z,10.42
2023-04-09T01:08:34.872Z,10.54
2023-04-09T01:11:39.180Z,10.46
2023-04-09T01:14:41.126Z,10.41
2023-04-09T01:17:20.069Z,10.43
2023-04-09T01:20:02.720Z,10.52
2023-04-09T01:23:00.728Z,10.57
2023-04-09T01:26:01.313Z,10.50
2023-04-09T01:28:40.528Z,10.49
2023-04-09T01:31:21.438Z,10.63
2023-04-09T01:33:50.901Z,10.75
2023-04-09T01:36:25.705Z,10.53
2023-04-09T01:38:59.657Z,10.52
2023-04-09T01:41:34.179Z,10.57
2023-04-09T01:44:10.624Z,10.25
2023-04-09T01:46:43.181Z,10.26
2023-04-09T01:49:13.077Z,10.46
2023-04-09T01:51:42.841Z,10.23
2023-04-09T01:54:12.064Z,10.35
2023-04-09T01:56:48.729Z,10.29
2023-04-09T01:59:18.080Z,10.41
2023-04-09T02:01:49.350Z,10.23
2023-04-09T02:04:28.919Z,10.32
2023-04-09T02:07:29.954Z,10.20
2023-04-09T02:10:04.920Z,10.07
2023-04-09T02:12:58.518Z,9.90
2023-04-09T02:15:29.663Z,10.02
2023-04-09T02:17:58.735Z,10.10
2023-04-09T02:20:30.134Z,10.17
2023-04-09T02:23:02.332Z,10.14
2023-04-09T02:25:33.882Z,10.05
2023-04-09T02:28:11.779Z,9.96
2023-04-09T02:30:43.967Z,9.99
2023-04-09T02:33:13.158Z,10.07
2023-04-09T02:35:45.365Z,10.06
2023-04-09T02:38:15.426Z,10.02
2023-04-09T02:40:44.724Z,9.96
2023-04-09T02:43:14.197Z,9.87
2023-04-09T02:45:57.655Z,9.96
2023-04-09T02:48:26.878Z,9.79
2023-04-09T02:50:58.577Z,10.11
2023-04-09T02:53:29.759Z,10.11
2023-04-09T02:56:10.232Z,10.04
2023-04-09T02:58:41.037Z,9.74
2023-04-09T03:01:15.725Z,9.85
2023-04-09T03:03:48.684Z,9.84
2023-04-09T03:06:22.249Z,9.95
2023-04-09T03:08:58.964Z,9.92
2023-04-09T03:11:37.478Z,9.98
2023-04-09T03:14:16.347Z,9.99
2023-04-09T03:16:46.734Z,9.96
2023-04-09T03:19:15.676Z,9.99
2023-04-09T03:21:46.642Z,9.95
2023-04-09T03:24:16.313Z,9.97
2023-04-09T03:26:46.984Z,9.96
2023-04-09T03:29:17.619Z,9.83
2023-04-09T03:31:46.752Z,9.87
2023-04-09T03:34:20.707Z,9.85
2023-04-09T03:36:57.290Z,9.79
2023-04-09T03:39:32.498Z,9.73
2023-04-09T03:42:02.707Z,9.73
2023-04-09T03:44:41.847Z,9.71
2023-04-09T03:47:14.745Z,9.73
2023-04-09T03:49:44.117Z,9.74
2023-04-09T03:52:24.796Z,9.69
2023-04-09T03:55:01.398Z,9.59
2023-04-09T03:57:30.517Z,9.52
2023-04-09T04:00:00.204Z,9.51
2023-04-09T04:02:47.512Z,9.31
2023-04-09T04:05:24.388Z,9.48
2023-04-09T04:08:06.093Z,9.63
2023-04-09T04:10:46.754Z,9.43
2023-04-09T04:13:25.631Z,9.37
2023-04-09T04:15:58.456Z,9.41
2023-04-09T04:18:34.023Z,9.40
2023-04-09T04:21:29.891Z,9.32
2023-04-09T04:24:12.728Z,9.51
2023-04-09T04:26:42.945Z,9.35
2023-04-09T04:29:15.107Z,9.44
2023-04-09T04:31:56.953Z,9.36
2023-04-09T04:34:29.837Z,9.43
2023-04-09T04:37:16.821Z,9.51
2023-04-09T04:39:45.996Z,9.52
2023-04-09T04:42:17.983Z,9.24
2023-04-09T04:44:50.675Z,9.38
2023-04-09T04:47:46.751Z,9.53
2023-04-09T04:50:16.399Z,9.49
2023-04-09T04:53:05.945Z,9.42
2023-04-09T04:55:56.797Z,9.53
2023-04-09T04:58:33.461Z,9.40
2023-04-09T05:01:07.088Z,9.42
2023-04-09T05:03:40.887Z,9.56
2023-04-09T05:06:33.104Z,9.59
2023-04-09T05:09:12.457Z,9.27
2023-04-09T05:12:03.038Z,9.38
2023-04-09T05:14:35.146Z,9.28
2023-04-09T05:17:04.962Z,9.37
2023-04-09T05:19:43.049Z,9.20
2023-04-09T05:22:18.045Z,9.29
2023-04-09T05:28:00.417Z,9.15
2023-04-09T05:30:37.149Z,9.06
2023-04-09T05:33:24.022Z,9.16
2023-04-09T05:35:55.186Z,9.22
2023-04-09T05:38:41.341Z,9.08
2023-04-09T05:41:23.105Z,8.92
2023-04-09T05:44:20.840Z,9.22
2023-04-09T05:46:53.680Z,9.18
2023-04-09T05:49:27.243Z,9.16
2023-04-09T05:52:00.083Z,9.34
2023-04-09T05:54:33.128Z,9.38
2023-04-09T05:57:03.097Z,9.35
2023-04-09T05:59:51.615Z,9.18
2023-04-09T06:02:26.781Z,9.11
2023-04-09T06:04:58.791Z,9.06
2023-04-09T06:07:28.212Z,9.17
2023-04-09T06:09:57.484Z,9.20
2023-04-09T06:12:29.737Z,9.32
2023-04-09T06:14:58.773Z,9.09
2023-04-09T06:17:33.298Z,9.13
2023-04-09T06:20:02.742Z,9.31
2023-04-09T06:22:34.705Z,9.32
2023-04-09T06:25:24.291Z,9.12
2023-04-09T06:27:53.667Z,9.13
2023-04-09T06:30:23.758Z,9.21
2023-04-09T06:32:56.105Z,9.06
2023-04-09T06:35:25.093Z,9.35
2023-04-09T06:38:02.471Z,9.17
2023-04-09T06:40:43.817Z,9.26
2023-04-09T06:43:15.871Z,9.04
2023-04-09T06:45:55.945Z,9.26
2023-04-09T06:48:34.124Z,9.30
2023-04-09T06:51:03.213Z,9.20
2023-04-09T06:53:32.523Z,9.12
2023-04-09T06:56:06.192Z,9.20
2023-04-09T06:58:35.350Z,9.16
2023-04-09T07:01:27.712Z,9.12
2023-04-09T07:04:05.554Z,9.08
2023-04-09T07:06:34.989Z,9.17
2023-04-09T07:09:04.674Z,9.05
2023-04-09T07:11:36.800Z,8.98
2023-04-09T07:14:08.415Z,8.96
2023-04-09T07:16:37.645Z,8.87
2023-04-09T07:19:08.278Z,9.11
2023-04-09T07:21:37.413Z,9.04
2023-04-09T07:24:09.189Z,9.17
2023-04-09T07:26:39.003Z,8.89
2023-04-09T07:29:11.429Z,8.74
2023-04-09T07:31:40.647Z,8.94
2023-04-09T07:34:13.061Z,9.15
2023-04-09T07:36:44.786Z,9.02
2023-04-09T07:39:13.897Z,8.94
2023-04-09T07:41:43.413Z,9.26
2023-04-09T07:44:18.561Z,9.20
2023-04-09T07:46:47.703Z,8.83
2023-04-09T07:49:18.015Z,8.99
2023-04-09T07:51:46.985Z,8.84
2023-04-09T07:54:17.428Z,9.17
2023-04-09T07:56:46.467Z,8.97
2023-04-09T07:59:18.561Z,9.16
2023-04-09T08:01:47.660Z,9.06
2023-04-09T08:04:20.024Z,8.97
2023-04-09T08:06:51.827Z,9.11
2023-04-09T08:09:26.868Z,9.26
2023-04-09T08:11:56.638Z,9.18
2023-04-09T08:14:26.680Z,9.09
2023-04-09T08:16:58.096Z,9.20
2023-04-09T08:19:27.135Z,9.06
2023-04-09T08:21:58.622Z,8.99
2023-04-09T08:24:29.747Z,9.20
2023-04-09T08:26:59.940Z,8.99
2023-04-09T08:29:35.310Z,9.11
2023-04-09T08:32:04.560Z,8.91
2023-04-09T08:34:33.479Z,9.07
2023-04-09T08:37:05.173Z,9.11
2023-04-09T08:39:34.613Z,9.18
2023-04-09T08:42:08.115Z,9.17
2023-04-09T08:44:41.792Z,9.12
2023-04-09T08:47:12.687Z,9.17
2023-04-09T08:50:08.984Z,8.95
2023-04-09T08:52:40.182Z,8.86
2023-04-09T08:55:09.771Z,9.02
2023-04-09T08:57:42.425Z,8.83
2023-04-09T09:00:20.690Z,8.68
2023-04-09T09:03:06.713Z,9.04
2023-04-09T09:05:48.661Z,8.81
2023-04-09T09:08:34.864Z,8.78
2023-04-09T09:11:03.859Z,8.84
2023-04-09T09:13:36.050Z,8.81
2023-04-09T09:16:18.586Z,8.89
2023-04-09T09:18:47.724Z,8.93
2023-04-09T09:21:18.629Z,9.08
2023-04-09T09:23:49.161Z,9.08
2023-04-09T09:26:26.762Z,9.05
2023-04-09T09:28:56.379Z,9.07
2023-04-09T09:31:25.906Z,9.13
2023-04-09T09:33:56.608Z,9.11
2023-04-09T09:36:34.687Z,8.95
2023-04-09T09:39:06.112Z,8.89
2023-04-09T09:41:35.168Z,9.00
2023-04-09T09:44:07.707Z,9.05
2023-04-09T09:46:42.034Z,9.06
2023-04-09T09:49:13.552Z,8.98
2023-04-09T09:51:43.399Z,8.99
2023-04-09T09:54:18.185Z,8.92
2023-04-09T09:56:48.135Z,9.12
2023-04-09T09:59:27.942Z,9.17
2023-04-09T10:02:08.247Z,9.09
2023-04-09T10:04:38.938Z,8.98
2023-04-09T10:07:09.086Z,8.83
2023-04-09T10:09:46.482Z,8.93
2023-04-09T10:12:15.924Z,8.79
2023-04-09T10:14:48.961Z,8.84
2023-04-09T10:17:19.507Z,8.85
2023-04-09T10:20:00.187Z,8.69
2023-04-09T10:22:33.681Z,8.84
2023-04-09T10:25:04.299Z,8.80
2023-04-09T10:27:50.512Z,9.02
2023-04-09T10:30:38.262Z,8.85
2023-04-09T10:33:20.091Z,8.72
2023-04-09T10:35:49.827Z,8.83
2023-04-09T10:38:18.770Z,8.94
2023-04-09T10:40:52.078Z,8.84
2023-04-09T10:43:23.089Z,8.98
2023-04-09T10:45:55.194Z,8.99
2023-04-09T10:48:27.503Z,8.93
2023-04-09T10:50:56.806Z,8.93
2023-04-09T10:53:27.164Z,8.91
2023-04-09T10:55:58.785Z,8.84
2023-04-09T10:58:28.181Z,8.77
2023-04-09T11:01:03.287Z,8.67
2023-04-09T11:03:42.970Z,8.57
2023-04-09T11:06:13.778Z,8.53
2023-04-09T11:08:47.997Z,8.64
2023-04-09T11:11:18.899Z,8.63
2023-04-09T11:13:48.741Z,8.75
2023-04-09T11:16:22.959Z,8.78
2023-04-09T11:18:57.073Z,8.83
2023-04-09T11:21:29.489Z,8.80
2023-04-09T11:23:59.836Z,8.81
2023-04-09T11:26:37.285Z,8.59
2023-04-09T11:29:10.545Z,8.77
2023-04-09T11:31:39.647Z,8.72
2023-04-09T11:34:13.144Z,8.68
2023-04-09T11:36:42.485Z,8.82
2023-04-09T11:39:11.783Z,8.66
2023-04-09T11:41:40.993Z,8.74
2023-04-09T11:44:10.060Z,8.95
2023-04-09T11:46:40.520Z,8.93
2023-04-09T11:49:10.406Z,8.72
2023-04-09T11:51:39.514Z,8.94
2023-04-09T11:54:12.842Z,8.81
2023-04-09T11:56:41.835Z,8.79
2023-04-09T11:59:11.444Z,8.79
2023-04-09T12:01:40.603Z,8.83
2023-04-09T12:04:10.313Z,8.96
2023-04-09T12:06:43.432Z,9.08
2023-04-09T12:09:18.666Z,9.08
2023-04-09T12:11:49.855Z,8.82
2023-04-09T12:14:19.843Z,9.02
2023-04-09T12:16:58.266Z,9.18
2023-04-09T12:19:28.851Z,9.11
2023-04-09T12:22:03.905Z,9.18
2023-04-09T12:24:33.042Z,9.20
2023-04-09T12:27:08.382Z,9.17
2023-04-09T12:29:37.726Z,9.19
2023-04-09T12:32:07.224Z,9.18
2023-04-09T12:34:36.810Z,9.16
2023-04-09T12:37:05.836Z,9.20
2023-04-09T12:39:37.649Z,9.15
2023-04-09T12:42:06.893Z,9.20
2023-04-09T12:44:35.973Z,9.16
2023-04-09T12:47:05.055Z,9.18
2023-04-09T12:49:34.009Z,9.16
2023-04-09T12:52:04.382Z,9.15
2023-04-09T12:54:33.532Z,9.17
2023-04-09T12:57:03.366Z,9.08
2023-04-09T12:59:32.357Z,9.17
2023-04-09T13:02:04.477Z,9.14
2023-04-09T13:04:39.393Z,9.06
2023-04-09T13:07:13.078Z,9.05
2023-04-09T13:09:42.749Z,8.99
2023-04-09T13:12:12.298Z,8.99
2023-04-09T13:14:41.402Z,9.06
2023-04-09T13:17:12.796Z,9.17
2023-04-09T13:19:42.811Z,9.20
2023-04-09T13:22:12.125Z,9.10
2023-04-09T13:24:46.285Z,9.08
2023-04-09T13:27:17.806Z,9.18
2023-04-09T13:29:48.778Z,9.28
2023-04-09T13:32:24.449Z,9.19
2023-04-09T13:34:55.463Z,9.12
2023-04-09T13:37:26.076Z,9.21
2023-04-09T13:39:55.141Z,9.27
2023-04-09T13:42:26.635Z,9.26
2023-04-09T13:44:59.579Z,9.19
2023-04-09T13:47:33.402Z,9.09
2023-04-09T13:50:22.938Z,9.15
2023-04-09T13:52:55.225Z,9.17
2023-04-09T13:55:24.265Z,9.14
2023-04-09T13:57:53.191Z,9.21
2023-04-09T14:00:25.995Z,9.28
2023-04-09T14:02:58.280Z,9.30
2023-04-09T14:05:28.154Z,9.33
2023-04-09T14:07:57.390Z,9.28
2023-04-09T14:10:29.060Z,9.33
2023-04-09T14:12:59.018Z,9.32
2023-04-09T14:15:28.318Z,9.22
2023-04-09T14:17:57.670Z,9.15
2023-04-09T14:20:28.203Z,9.23
2023-04-09T14:22:57.753Z,9.16
2023-04-09T14:25:29.729Z,9.30
2023-04-09T14:27:58.808Z,9.32
2023-04-09T14:30:27.798Z,9.12
2023-04-09T14:32:57.227Z,9.11
2023-04-09T14:35:27.103Z,9.12
2023-04-09T14:37:56.141Z,9.27
2023-04-09T14:40:28.730Z,9.22
2023-04-09T14:43:03.540Z,9.22
2023-04-09T14:45:39.002Z,9.21
2023-04-09T14:48:25.353Z,9.11
2023-04-09T14:51:01.557Z,9.06
2023-04-09T14:53:51.488Z,9.09
2023-04-09T14:56:23.768Z,9.00
2023-04-09T14:59:00.112Z,9.17
2023-04-09T15:01:54.416Z,9.14
2023-04-09T15:04:30.541Z,9.31
2023-04-09T15:11:28.358Z,9.37
2023-04-09T15:14:00.838Z,9.43
2023-04-09T15:16:38.189Z,9.52
2023-04-09T15:19:15.006Z,9.39
2023-04-09T15:21:53.385Z,9.38
2023-04-09T15:24:23.038Z,9.42
2023-04-09T15:26:54.317Z,9.50
2023-04-09T15:29:24.744Z,9.39
2023-04-09T15:31:56.742Z,9.62
2023-04-09T15:34:31.593Z,9.81
2023-04-09T15:37:09.865Z,9.48
2023-04-09T15:39:42.096Z,9.71
2023-04-09T15:42:33.340Z,9.79
2023-04-09T15:45:22.336Z,9.71
2023-04-09T15:48:17.196Z,9.70
2023-04-09T15:51:13.908Z,9.65
2023-04-09T15:53:43.135Z,9.53
2023-04-09T15:56:19.059Z,9.60
2023-04-09T15:58:54.727Z,9.42
2023-04-09T16:01:24.044Z,9.48
2023-04-09T16:03:57.983Z,9.43
2023-04-09T16:06:27.068Z,9.49
2023-04-09T16:08:56.180Z,9.52
2023-04-09T16:11:25.482Z,9.55
2023-04-09T16:13:59.998Z,9.42
2023-04-09T16:16:30.084Z,9.42
2023-04-09T16:18:59.441Z,9.54
2023-04-09T16:21:28.963Z,9.30
2023-04-09T16:23:58.310Z,9.34
2023-04-09T16:26:30.438Z,9.54
2023-04-09T16:29:08.849Z,9.56
2023-04-09T16:31:45.099Z,9.48
2023-04-09T16:34:28.474Z,9.36
2023-04-09T16:36:57.573Z,9.48
2023-04-09T16:39:27.127Z,9.50
2023-04-09T16:41:56.786Z,9.51
2023-04-09T16:44:27.546Z,9.57
2023-04-09T16:47:01.966Z,9.49
2023-04-09T16:49:35.687Z,9.57
2023-04-09T16:52:07.119Z,9.60
2023-04-09T16:54:43.637Z,9.64
2023-04-09T16:57:13.398Z,9.65
2023-04-09T16:59:46.448Z,9.68
2023-04-09T17:02:59.524Z,9.64
2023-04-09T17:06:03.608Z,9.68
2023-04-09T17:08:44.479Z,9.68
2023-04-09T17:11:21.635Z,9.58
2023-04-09T17:13:53.280Z,9.71
2023-04-09T17:16:35.577Z,9.69
2023-04-09T17:19:07.830Z,9.85
2023-04-09T17:21:40.812Z,9.80
2023-04-09T17:24:13.310Z,9.85
2023-04-09T17:26:42.612Z,9.88
2023-04-09T17:29:11.727Z,9.74
2023-04-09T17:31:40.812Z,9.87
2023-04-09T17:34:10.489Z,9.89
2023-04-09T17:37:23.649Z,9.70
2023-04-09T17:40:18.289Z,9.83
2023-04-09T17:43:35.284Z,10.02
2023-04-09T17:46:38.394Z,10.06
2023-04-09T17:49:28.870Z,10.19
2023-04-09T17:56:00.301Z,10.11
2023-04-09T17:58:37.718Z,10.26
2023-04-09T18:01:13.031Z,10.29
2023-04-09T18:04:58.850Z,10.37
2023-04-09T18:08:41.615Z,10.36
2023-04-09T18:11:41.358Z,10.49
2023-04-09T18:14:10.803Z,10.43
2023-04-09T18:16:40.854Z,10.42
2023-04-09T18:19:13.622Z,10.07
2023-04-09T18:21:45.795Z,10.44
2023-04-09T18:24:15.259Z,10.33
2023-04-09T18:26:44.299Z,10.31
2023-04-09T18:29:14.991Z,9.99
2023-04-09T18:31:44.099Z,10.01
2023-04-09T18:34:19.973Z,10.19
2023-04-09T18:37:13.984Z,10.26
2023-04-09T18:39:43.108Z,10.42
2023-04-09T18:42:17.460Z,10.44
2023-04-09T18:44:56.699Z,10.45
2023-04-09T18:47:32.529Z,10.32
2023-04-09T18:50:07.819Z,10.55
2023-04-09T18:52:50.160Z,10.44
2023-04-09T18:55:26.534Z,10.52
2023-04-09T18:57:56.918Z,10.36
2023-04-09T19:00:32.025Z,10.62
2023-04-09T19:03:05.580Z,10.60
2023-04-09T19:05:47.490Z,10.68
2023-04-09T19:08:17.404Z,10.47
2023-04-09T19:10:50.386Z,10.67
2023-04-09T19:14:10.265Z,10.75
2023-04-09T19:16:43.733Z,10.79
2023-04-09T19:22:05.523Z,10.75
2023-04-09T19:24:36.670Z,10.78
2023-04-09T19:27:10.765Z,10.76
2023-04-09T19:29:40.974Z,10.81
2023-04-09T19:32:18.544Z,10.92
2023-04-09T19:34:49.300Z,11.03
2023-04-09T19:37:51.553Z,10.80
2023-04-09T19:40:29.580Z,11.21
2023-04-09T19:43:00.085Z,11.14
2023-04-09T19:45:58.708Z,11.07
2023-04-09T19:48:28.398Z,11.14
2023-04-09T19:51:01.845Z,11.04
2023-04-09T19:53:31.839Z,11.26
2023-04-09T19:56:02.934Z,11.07
2023-04-09T19:58:33.489Z,10.96
2023-04-09T20:01:02.861Z,10.80
2023-04-09T20:03:35.678Z,11.02
2023-04-09T20:06:12.592Z,10.85
2023-04-09T20:08:42.455Z,11.10
2023-04-09T20:11:38.593Z,11.07
2023-04-09T20:14:07.917Z,11.12
2023-04-09T20:16:40.123Z,11.12
2023-04-09T20:19:38.186Z,11.17
2023-04-09T20:22:29.184Z,11.27
2023-04-09T20:25:21.740Z,11.31
2023-04-09T20:31:38.203Z,11.38
2023-04-09T20:34:10.524Z,11.21
2023-04-09T20:37:27.357Z,10.98
2023-04-09T20:40:00.162Z,11.09
2023-04-09T20:42:33.087Z,11.02
2023-04-09T20:45:02.467Z,11.00
2023-04-09T20:47:43.777Z,10.89
2023-04-09T20:50:13.115Z,11.14
2023-04-09T20:52:53.171Z,11.15
2023-04-09T20:59:04.043Z,11.14
2023-04-09T21:01:52.798Z,11.31
2023-04-09T21:04:54.787Z,11.27
2023-04-09T21:07:27.116Z,11.21
2023-04-09T21:10:21.882Z,11.26
2023-04-09T21:12:53.923Z,11.12
2023-04-09T21:16:35.951Z,11.35
2023-04-09T21:20:20.929Z,11.27
2023-04-09T21:27:07.918Z,11.61
2023-04-09T21:29:56.659Z,11.66
2023-04-09T21:33:18.635Z,11.63
2023-04-09T21:35:49.805Z,11.86
2023-04-09T21:38:24.917Z,12.00
2023-04-09T21:40:54.277Z,11.92
2023-04-09T21:43:29.167Z,12.01
2023-04-09T21:46:01.146Z,12.00
2023-04-09T21:48:36.854Z,11.96
2023-04-09T21:51:19.472Z,11.86
2023-04-09T21:55:34.341Z,12.03
2023-04-09T21:58:06.741Z,12.16
2023-04-09T22:00:38.967Z,12.13
2023-04-09T22:03:09.388Z,12.26
2023-04-09T22:05:39.501Z,12.19
2023-04-09T22:08:12.845Z,12.20
2023-04-09T22:14:03.124Z,12.12
2023-04-09T22:16:41.769Z,12.12
2023-04-09T22:19:30.507Z,11.95
2023-04-09T22:22:07.877Z,12.04
2023-04-09T22:25:27.294Z,12.04
2023-04-09T22:28:36.809Z,12.14
2023-04-09T22:31:47.918Z,12.23
2023-04-09T22:35:08.315Z,12.49
2023-04-09T22:42:38.168Z,12.77
2023-04-09T22:45:14.494Z,12.75
2023-04-09T22:49:04.195Z,12.96
2023-04-09T22:51:20.592Z,12.90
2023-04-09T22:53:50.013Z,12.70
2023-04-09T22:59:21.348Z,12.94
2023-04-09T23:01:54.821Z,13.06
2023-04-09T23:04:28.816Z,12.98
2023-04-09T23:07:49.642Z,13.10
2023-04-09T23:10:33.105Z,13.13
2023-04-09T23:13:12.428Z,13.17
2023-04-09T23:15:47.860Z,13.07
2023-04-09T23:19:21.957Z,13.17
2023-04-09T23:21:12.514Z,13.18
2023-04-09T23:24:34.944Z,13.30
2023-04-09T23:27:04.291Z,13.33
2023-04-09T23:29:34.310Z,13.33
2023-04-09T23:32:06.658Z,13.17
2023-04-09T23:34:58.764Z,13.41
2023-04-09T23:37:53.867Z,13.26
2023-04-09T23:40:28.318Z,13.35
2023-04-09T23:43:58.646Z,13.29
2023-04-09T23:47:09.034Z,13.28
2023-04-09T23:49:38.439Z,13.35
2023-04-09T23:52:09.044Z,13.36
2023-04-09T23:54:56.973Z,13.27
2023-04-09T23:57:52.305Z,13.25
